Time;durP1;ratioP1;P1;durP2;ratioP2;P2;SDS_P1;SDS_P2;PMS_P1;PMS_P2;Temp;Humidity;BMP_temperature;BMP_pressure;BME280_temperature;BME280_humidity;BME280_pressure;Samples;Min_cycle;Max_cycle;Signal;HPM_P1;HPM_P2
2022/07/20 00:01:55;;;;;;;;;;;24.10;45.70;;;;;;5080780;28;20063;-61
2022/07/20 00:04:22;;;;;;;;;;;24.10;45.70;;;;;;5077964;28;19925;-60
2022/07/20 00:06:49;;;;;;;;;;;24.10;45.70;;;;;;5084515;28;20404;-60
2022/07/20 00:12:01;;;;;;;;;;;24.10;46.20;;;;;;5096737;28;19921;-61
2022/07/20 00:14:28;;;;;;;;;;;24.10;45.60;;;;;;5079790;28;20358;-61
2022/07/20 00:16:55;;;;;;;;;;;24.10;45.60;;;;;;5084605;28;19920;-61
2022/07/20 00:19:21;;;;;;;;;;;24.10;45.60;;;;;;5096484;27;19921;-61
2022/07/20 00:21:48;;;;;;;;;;;24.10;45.60;;;;;;5083098;28;20321;-61
2022/07/20 00:24:15;;;;;;;;;;;24.10;45.60;;;;;;5059906;28;19927;-61
2022/07/20 00:26:41;;;;;;;;;;;24.10;45.60;;;;;;5066988;28;19982;-60
2022/07/20 00:29:10;;;;;;;;;;;24.10;45.60;;;;;;5071262;28;19932;-61
2022/07/20 00:31:36;;;;;;;;;;;24.10;45.60;;;;;;5070649;28;20314;-60
2022/07/20 00:34:03;;;;;;;;;;;24.10;45.60;;;;;;5069600;28;20316;-61
2022/07/20 00:36:30;;;;;;;;;;;24.10;45.60;;;;;;5104756;28;19924;-61
2022/07/20 00:38:56;;;;;;;;;;;24.10;45.60;;;;;;5089378;28;19928;-61
2022/07/20 00:41:23;;;;;;;;;;;24.10;45.60;;;;;;5103906;28;19928;-60
2022/07/20 00:43:56;;;;;;;;;;;24.10;45.60;;;;;;5091120;28;19921;-60
2022/07/20 00:46:25;;;;;;;;;;;24.10;45.60;;;;;;5072324;28;19975;-60
2022/07/20 00:48:52;;;;;;;;;;;24.10;45.60;;;;;;5070684;28;19921;-58
2022/07/20 00:51:18;;;;;;;;;;;24.10;45.60;;;;;;5104004;28;20354;-60
2022/07/20 00:53:45;;;;;;;;;;;24.10;45.60;;;;;;5087751;28;19920;-57
2022/07/20 00:56:12;;;;;;;;;;;24.00;45.50;;;;;;5105034;28;20019;-60
2022/07/20 00:58:38;;;;;;;;;;;24.10;45.60;;;;;;5071457;28;19944;-60
2022/07/20 01:01:05;;;;;;;;;;;24.10;45.60;;;;;;5068240;28;20269;-58
2022/07/20 01:03:33;;;;;;;;;;;24.10;45.60;;;;;;5071508;28;20274;-59
2022/07/20 01:06:00;;;;;;;;;;;24.10;45.60;;;;;;5091366;28;19928;-59
2022/07/20 01:08:27;;;;;;;;;;;24.10;45.60;;;;;;5065512;28;20326;-59
2022/07/20 01:10:54;;;;;;;;;;;24.00;45.50;;;;;;5072672;28;19920;-61
2022/07/20 01:13:20;;;;;;;;;;;24.10;45.60;;;;;;5069817;28;20557;-61
2022/07/20 01:15:47;;;;;;;;;;;24.00;45.50;;;;;;5086975;28;19932;-60
2022/07/20 01:18:14;;;;;;;;;;;24.00;45.50;;;;;;5103803;28;20463;-60
2022/07/20 01:20:44;;;;;;;;;;;24.00;45.50;;;;;;5086064;28;19920;-59
2022/07/20 01:23:12;;;;;;;;;;;24.00;45.40;;;;;;5089138;28;20000;-59
2022/07/20 01:25:39;;;;;;;;;;;24.00;45.80;;;;;;5070160;28;19921;-60
2022/07/20 01:28:06;;;;;;;;;;;24.00;45.40;;;;;;5100815;28;20337;-60
2022/07/20 01:30:32;;;;;;;;;;;24.00;45.40;;;;;;5071919;28;19947;-61
2022/07/20 01:32:59;;;;;;;;;;;24.00;45.50;;;;;;5072861;28;20427;-60
2022/07/20 01:35:26;;;;;;;;;;;24.00;45.40;;;;;;5069519;28;19931;-59
2022/07/20 01:37:52;;;;;;;;;;;24.00;45.50;;;;;;5086378;28;19924;-60
2022/07/20 01:40:21;;;;;;;;;;;24.00;45.40;;;;;;5103237;28;19960;-59
2022/07/20 01:42:47;;;;;;;;;;;24.00;45.40;;;;;;5086460;28;19924;-60
2022/07/20 01:45:14;;;;;;;;;;;24.00;45.40;;;;;;5102574;28;20098;-60
2022/07/20 01:47:41;;;;;;;;;;;24.00;45.40;;;;;;5074062;28;19977;-60
2022/07/20 01:50:08;;;;;;;;;;;24.00;45.40;;;;;;5103177;28;19985;-60
2022/07/20 01:52:34;;;;;;;;;;;24.00;45.40;;;;;;5103237;27;19920;-59
2022/07/20 01:55:01;;;;;;;;;;;24.00;45.40;;;;;;5067736;28;19920;-59
2022/07/20 01:57:29;;;;;;;;;;;24.00;45.40;;;;;;5086377;28;20015;-61
2022/07/20 01:59:56;;;;;;;;;;;24.00;45.40;;;;;;5087260;28;20431;-59
2022/07/20 02:02:23;;;;;;;;;;;24.00;45.40;;;;;;5067101;28;19932;-64
2022/07/20 02:04:50;;;;;;;;;;;24.00;45.40;;;;;;5069729;28;19928;-58
2022/07/20 02:07:16;;;;;;;;;;;24.00;45.40;;;;;;5088831;28;19973;-60
2022/07/20 02:09:43;;;;;;;;;;;24.00;45.40;;;;;;5101674;28;19970;-60
2022/07/20 02:12:10;;;;;;;;;;;24.00;45.40;;;;;;5084819;28;20017;-60
2022/07/20 02:14:38;;;;;;;;;;;24.00;45.40;;;;;;5085350;28;19920;-60
2022/07/20 02:17:05;;;;;;;;;;;24.00;45.40;;;;;;5102548;28;19924;-59
2022/07/20 02:19:32;;;;;;;;;;;24.00;45.40;;;;;;5083636;28;19975;-58
2022/07/20 02:21:59;;;;;;;;;;;24.00;45.40;;;;;;5101413;28;20245;-60
2022/07/20 02:24:25;;;;;;;;;;;24.00;45.30;;;;;;5077470;28;19947;-60
2022/07/20 02:26:52;;;;;;;;;;;24.00;45.30;;;;;;5084317;28;19974;-59
2022/07/20 02:29:19;;;;;;;;;;;24.00;45.30;;;;;;5073508;28;19928;-60
2022/07/20 02:31:47;;;;;;;;;;;24.00;45.30;;;;;;5083628;28;20242;-59
2022/07/20 02:34:14;;;;;;;;;;;24.00;45.30;;;;;;5102248;28;19928;-60
2022/07/20 02:36:40;;;;;;;;;;;24.00;45.30;;;;;;5085917;28;20019;-61
2022/07/20 02:39:08;;;;;;;;;;;24.00;45.30;;;;;;5069858;28;20446;-61
2022/07/20 02:41:34;;;;;;;;;;;24.00;45.30;;;;;;5070490;28;19921;-59
2022/07/20 02:44:01;;;;;;;;;;;24.00;45.30;;;;;;5085896;28;19927;-60
2022/07/20 02:46:40;;;;;;;;;;;24.00;45.30;;;;;;5086492;28;19985;-60
2022/07/20 02:49:08;;;;;;;;;;;23.90;45.30;;;;;;5087245;28;19932;-60
2022/07/20 02:51:35;;;;;;;;;;;23.90;45.20;;;;;;5097131;28;19986;-61
2022/07/20 02:54:01;;;;;;;;;;;23.90;45.20;;;;;;5101453;28;19951;-60
2022/07/20 02:56:28;;;;;;;;;;;24.00;45.30;;;;;;5085601;28;20058;-61
2022/07/20 02:58:58;;;;;;;;;;;23.90;45.20;;;;;;5086627;28;19978;-60
2022/07/20 03:01:32;;;;;;;;;;;23.90;45.20;;;;;;5101857;28;19973;-60
2022/07/20 03:03:59;;;;;;;;;;;23.90;45.20;;;;;;5068782;28;19973;-60
2022/07/20 03:06:27;;;;;;;;;;;23.90;45.20;;;;;;5098344;28;19921;-59
2022/07/20 03:08:54;;;;;;;;;;;23.90;45.20;;;;;;5083056;28;19947;-59
2022/07/20 03:11:22;;;;;;;;;;;23.90;45.20;;;;;;5088327;28;19931;-59
2022/07/20 03:13:49;;;;;;;;;;;23.90;45.20;;;;;;5074949;28;19920;-60
2022/07/20 03:16:16;;;;;;;;;;;23.90;45.20;;;;;;5072404;28;20185;-59
2022/07/20 03:18:46;;;;;;;;;;;23.90;45.20;;;;;;5089567;28;19993;-61
2022/07/20 03:21:13;;;;;;;;;;;23.90;45.20;;;;;;5089773;28;19964;-59
2022/07/20 03:23:41;;;;;;;;;;;23.90;45.20;;;;;;5089621;28;19974;-60
2022/07/20 03:26:08;;;;;;;;;;;23.90;45.20;;;;;;5104624;28;19932;-59
2022/07/20 03:28:34;;;;;;;;;;;23.90;45.20;;;;;;5072332;28;19924;-60
2022/07/20 03:31:01;;;;;;;;;;;23.90;45.20;;;;;;5105611;28;20251;-63
2022/07/20 03:33:28;;;;;;;;;;;23.90;45.20;;;;;;5089332;28;20023;-61
2022/07/20 03:35:55;;;;;;;;;;;23.90;45.20;;;;;;5071554;28;19946;-60
2022/07/20 03:38:21;;;;;;;;;;;23.90;45.20;;;;;;5088266;28;19927;-60
2022/07/20 03:40:49;;;;;;;;;;;23.90;45.20;;;;;;5072041;28;19921;-60
2022/07/20 03:43:16;;;;;;;;;;;23.90;45.30;;;;;;5073594;28;19920;-60
2022/07/20 03:45:43;;;;;;;;;;;23.90;45.30;;;;;;5104472;28;19920;-59
2022/07/20 03:48:10;;;;;;;;;;;23.90;45.30;;;;;;5072906;28;19924;-58
2022/07/20 03:50:36;;;;;;;;;;;23.90;45.30;;;;;;5091338;28;19960;-59
2022/07/20 03:53:03;;;;;;;;;;;23.90;45.30;;;;;;5087100;28;19975;-60
2022/07/20 03:55:30;;;;;;;;;;;23.90;45.30;;;;;;5105653;28;19970;-59
2022/07/20 03:57:58;;;;;;;;;;;23.90;45.30;;;;;;5104520;27;19920;-60
2022/07/20 04:00:25;;;;;;;;;;;23.90;45.30;;;;;;5073072;28;19924;-60
2022/07/20 04:02:52;;;;;;;;;;;23.90;45.40;;;;;;5072507;28;20382;-59
2022/07/20 04:05:18;;;;;;;;;;;23.90;45.30;;;;;;5069758;28;20427;-60
2022/07/20 04:07:45;;;;;;;;;;;23.90;45.40;;;;;;5069032;28;20337;-60
2022/07/20 04:10:12;;;;;;;;;;;23.90;45.40;;;;;;5087761;28;20188;-59
2022/07/20 04:12:38;;;;;;;;;;;23.90;45.40;;;;;;5086045;28;19924;-60
2022/07/20 04:15:07;;;;;;;;;;;23.90;45.40;;;;;;5071456;28;19982;-60
2022/07/20 04:17:34;;;;;;;;;;;23.90;45.40;;;;;;5070877;28;20312;-59
2022/07/20 04:20:03;;;;;;;;;;;23.90;45.40;;;;;;5070680;28;19943;-60
2022/07/20 04:22:30;;;;;;;;;;;23.90;45.40;;;;;;5103609;28;20207;-61
2022/07/20 04:24:57;;;;;;;;;;;23.90;45.40;;;;;;5102665;27;20304;-59
2022/07/20 04:27:23;;;;;;;;;;;23.90;45.40;;;;;;5072574;28;20365;-59
2022/07/20 04:29:50;;;;;;;;;;;23.90;45.40;;;;;;5090641;28;20218;-59
2022/07/20 04:32:18;;;;;;;;;;;23.90;45.40;;;;;;5071904;28;19978;-60
2022/07/20 04:34:45;;;;;;;;;;;23.90;45.40;;;;;;5084223;28;19997;-60
2022/07/20 04:37:12;;;;;;;;;;;23.90;45.40;;;;;;5085184;28;19960;-59
2022/07/20 04:39:39;;;;;;;;;;;23.90;45.50;;;;;;5088466;28;20376;-60
2022/07/20 04:42:06;;;;;;;;;;;23.90;45.40;;;;;;5070542;28;19933;-60
2022/07/20 04:44:33;;;;;;;;;;;23.90;45.50;;;;;;5076153;28;19935;-60
2022/07/20 04:47:00;;;;;;;;;;;23.90;45.40;;;;;;5073964;28;19932;-59
2022/07/20 04:49:28;;;;;;;;;;;23.90;45.50;;;;;;5104423;28;19925;-60
2022/07/20 04:51:55;;;;;;;;;;;23.90;45.50;;;;;;5071171;28;19925;-58
2022/07/20 04:54:22;;;;;;;;;;;23.90;45.50;;;;;;5069428;28;19927;-60
2022/07/20 04:56:49;;;;;;;;;;;23.90;45.50;;;;;;5104169;28;19966;-60
2022/07/20 04:59:16;;;;;;;;;;;23.90;45.50;;;;;;5089268;28;19951;-58
2022/07/20 05:01:42;;;;;;;;;;;23.90;45.50;;;;;;5071142;28;20324;-59
2022/07/20 05:04:09;;;;;;;;;;;23.90;45.50;;;;;;5086932;28;19920;-60
2022/07/20 05:06:38;;;;;;;;;;;23.90;45.50;;;;;;5101941;27;19971;-59
2022/07/20 05:09:07;;;;;;;;;;;23.90;45.50;;;;;;5070345;28;20353;-58
2022/07/20 05:11:34;;;;;;;;;;;23.90;45.50;;;;;;5086430;28;19925;-60
2022/07/20 05:14:00;;;;;;;;;;;23.90;45.50;;;;;;5103769;28;20361;-60
2022/07/20 05:16:27;;;;;;;;;;;23.90;45.50;;;;;;5066574;28;19971;-59
2022/07/20 05:18:54;;;;;;;;;;;23.90;45.50;;;;;;5075418;28;19974;-59
2022/07/20 05:21:20;;;;;;;;;;;23.90;45.60;;;;;;5071355;28;20015;-57
2022/07/20 05:23:49;;;;;;;;;;;23.90;45.50;;;;;;5101398;28;19932;-60
2022/07/20 05:26:15;;;;;;;;;;;23.90;45.60;;;;;;5087807;28;20257;-60
2022/07/20 05:28:42;;;;;;;;;;;23.90;45.60;;;;;;5070700;28;19921;-58
2022/07/20 05:31:09;;;;;;;;;;;23.90;45.60;;;;;;5087241;28;19931;-59
2022/07/20 05:33:36;;;;;;;;;;;23.90;45.60;;;;;;5085575;28;20351;-59
2022/07/20 05:36:03;;;;;;;;;;;23.90;45.60;;;;;;5071874;28;19954;-60
2022/07/20 05:38:30;;;;;;;;;;;23.90;45.60;;;;;;5067324;28;19932;-59
2022/07/20 05:40:58;;;;;;;;;;;23.90;45.70;;;;;;5105506;28;19921;-58
2022/07/20 05:43:25;;;;;;;;;;;23.90;45.70;;;;;;5070072;28;19921;-59
2022/07/20 05:45:52;;;;;;;;;;;23.90;45.70;;;;;;5103911;28;19962;-60
2022/07/20 05:48:19;;;;;;;;;;;23.90;45.70;;;;;;5086434;28;19981;-60
2022/07/20 05:50:45;;;;;;;;;;;23.90;45.70;;;;;;5074330;28;20362;-60
2022/07/20 05:53:12;;;;;;;;;;;23.90;45.80;;;;;;5100051;28;19924;-60
2022/07/20 05:55:39;;;;;;;;;;;23.90;45.80;;;;;;5071720;28;19920;-59
2022/07/20 05:58:08;;;;;;;;;;;23.90;45.80;;;;;;5086157;28;19939;-58
2022/07/20 06:00:35;;;;;;;;;;;23.90;45.80;;;;;;5072773;28;19928;-58
2022/07/20 06:03:02;;;;;;;;;;;23.90;45.90;;;;;;5102592;28;20434;-58
2022/07/20 06:05:28;;;;;;;;;;;23.90;45.80;;;;;;5103396;28;20011;-58
2022/07/20 06:07:56;;;;;;;;;;;23.90;45.90;;;;;;5072969;28;19943;-58
2022/07/20 06:10:22;;;;;;;;;;;23.90;45.90;;;;;;5086966;28;19920;-59
2022/07/20 06:12:49;;;;;;;;;;;23.90;45.90;;;;;;5071390;28;19925;-59
2022/07/20 06:15:18;;;;;;;;;;;23.90;45.90;;;;;;5101569;28;20028;-58
2022/07/20 06:17:45;;;;;;;;;;;23.90;46.00;;;;;;5070464;28;20324;-61
2022/07/20 06:20:12;;;;;;;;;;;23.90;46.00;;;;;;5086845;28;19972;-60
2022/07/20 06:22:39;;;;;;;;;;;23.90;46.00;;;;;;5086510;28;19928;-60
2022/07/20 06:25:06;;;;;;;;;;;23.90;46.00;;;;;;5071643;28;19924;-60
2022/07/20 06:27:33;;;;;;;;;;;24.00;46.00;;;;;;5086909;28;19989;-59
2022/07/20 06:30:00;;;;;;;;;;;23.90;46.00;;;;;;5101865;28;20042;-60
2022/07/20 06:32:28;;;;;;;;;;;23.90;46.00;;;;;;5086369;28;19925;-61
2022/07/20 06:34:55;;;;;;;;;;;23.90;46.00;;;;;;5074381;28;19998;-60
2022/07/20 06:37:22;;;;;;;;;;;24.00;46.10;;;;;;5085496;28;20377;-59
2022/07/20 06:39:49;;;;;;;;;;;23.90;46.00;;;;;;5083445;28;19927;-61
2022/07/20 06:42:16;;;;;;;;;;;24.00;46.10;;;;;;5100616;28;19924;-62
2022/07/20 06:44:42;;;;;;;;;;;24.00;46.10;;;;;;5067505;28;19920;-61
2022/07/20 06:47:09;;;;;;;;;;;24.00;46.10;;;;;;5069915;28;19959;-59
2022/07/20 06:49:37;;;;;;;;;;;24.00;46.10;;;;;;5082633;28;20285;-60
2022/07/20 06:52:04;;;;;;;;;;;24.00;46.70;;;;;;5083956;28;20011;-60
2022/07/20 06:54:31;;;;;;;;;;;24.00;46.20;;;;;;5101841;28;20408;-59
2022/07/20 06:56:58;;;;;;;;;;;24.00;46.20;;;;;;5068936;28;19921;-59
2022/07/20 06:59:25;;;;;;;;;;;24.00;46.20;;;;;;5066456;28;19928;-58
2022/07/20 07:01:52;;;;;;;;;;;24.00;46.20;;;;;;5101981;28;20277;-60
2022/07/20 07:04:19;;;;;;;;;;;24.00;46.30;;;;;;5067832;28;20022;-57
2022/07/20 07:06:47;;;;;;;;;;;24.00;46.60;;;;;;5062318;28;20041;-64
2022/07/20 07:09:15;;;;;;;;;;;24.00;46.80;;;;;;5056416;28;20351;-64
2022/07/20 07:11:42;;;;;;;;;;;24.00;47.00;;;;;;5077743;28;19920;-63
2022/07/20 07:14:09;;;;;;;;;;;24.00;47.10;;;;;;5067195;28;20035;-61
2022/07/20 07:16:35;;;;;;;;;;;24.00;47.70;;;;;;5067073;28;19921;-62
2022/07/20 07:19:02;;;;;;;;;;;24.10;47.30;;;;;;5066745;28;19921;-65
2022/07/20 07:21:32;;;;;;;;;;;24.10;47.30;;;;;;5060315;28;19920;-65
2022/07/20 07:24:01;;;;;;;;;;;24.10;47.40;;;;;;5064591;28;19927;-63
2022/07/20 07:26:28;;;;;;;;;;;24.10;48.00;;;;;;5060083;28;19924;-63
2022/07/20 07:28:56;;;;;;;;;;;24.10;47.40;;;;;;5075292;28;19932;-63
2022/07/20 07:31:23;;;;;;;;;;;24.10;47.40;;;;;;5073212;28;19931;-63
2022/07/20 07:33:50;;;;;;;;;;;24.10;47.30;;;;;;5073707;28;20369;-63
2022/07/20 07:36:17;;;;;;;;;;;24.10;47.30;;;;;;5062185;28;19932;-63
2022/07/20 07:38:43;;;;;;;;;;;24.10;47.20;;;;;;5063756;28;19920;-63
2022/07/20 07:41:11;;;;;;;;;;;24.10;47.20;;;;;;5080659;28;20223;-64
2022/07/20 07:43:38;;;;;;;;;;;24.20;47.30;;;;;;5097956;28;19921;-64
2022/07/20 07:46:05;;;;;;;;;;;24.20;47.30;;;;;;5086454;28;20281;-64
2022/07/20 07:48:32;;;;;;;;;;;24.20;47.30;;;;;;5066024;28;19920;-64
2022/07/20 07:50:59;;;;;;;;;;;24.20;47.30;;;;;;5082846;28;20039;-64
2022/07/20 07:53:25;;;;;;;;;;;24.20;47.30;;;;;;5066260;28;20366;-64
2022/07/20 07:55:52;;;;;;;;;;;24.20;47.30;;;;;;5082105;28;19925;-63
2022/07/20 07:58:20;;;;;;;;;;;24.20;47.30;;;;;;5068015;28;19924;-64
2022/07/20 08:00:47;;;;;;;;;;;24.20;47.30;;;;;;5068527;28;20030;-61
2022/07/20 08:03:14;;;;;;;;;;;24.20;47.40;;;;;;5068427;28;20362;-64
2022/07/20 08:05:41;;;;;;;;;;;24.20;47.40;;;;;;5081351;28;19920;-63
2022/07/20 08:08:08;;;;;;;;;;;24.20;47.50;;;;;;5068585;28;19936;-64
2022/07/20 08:10:35;;;;;;;;;;;24.30;47.50;;;;;;5068552;28;19947;-63
2022/07/20 08:13:01;;;;;;;;;;;24.30;47.50;;;;;;5067068;28;20278;-63
2022/07/20 08:15:30;;;;;;;;;;;24.30;47.60;;;;;;5096039;28;20049;-63
2022/07/20 08:17:56;;;;;;;;;;;24.30;47.60;;;;;;5083642;28;20307;-64
2022/07/20 08:20:23;;;;;;;;;;;24.30;47.60;;;;;;5101744;28;20455;-64
2022/07/20 08:22:50;;;;;;;;;;;24.30;47.50;;;;;;5067884;28;20027;-64
2022/07/20 08:25:17;;;;;;;;;;;24.30;48.20;;;;;;5063753;28;20030;-66
2022/07/20 08:27:44;;;;;;;;;;;24.30;47.60;;;;;;5066308;28;19938;-65
2022/07/20 08:30:11;;;;;;;;;;;24.30;47.60;;;;;;5084233;28;19921;-64
2022/07/20 08:32:39;;;;;;;;;;;24.30;47.60;;;;;;5086991;28;19924;-64
2022/07/20 08:35:07;;;;;;;;;;;24.30;47.60;;;;;;5085842;28;19920;-66
2022/07/20 08:37:34;;;;;;;;;;;24.30;47.60;;;;;;5101633;27;19959;-64
2022/07/20 08:40:01;;;;;;;;;;;24.40;47.70;;;;;;5085019;28;19936;-65
2022/07/20 08:42:27;;;;;;;;;;;24.40;47.80;;;;;;5082433;28;20293;-64
2022/07/20 08:44:54;;;;;;;;;;;24.40;47.70;;;;;;5085486;28;19956;-65
2022/07/20 08:47:21;;;;;;;;;;;24.40;47.80;;;;;;5065424;28;19966;-65
2022/07/20 08:49:50;;;;;;;;;;;24.40;47.90;;;;;;5082242;28;19932;-64
2022/07/20 08:52:17;;;;;;;;;;;24.40;48.00;;;;;;5062480;28;19920;-65
2022/07/20 08:54:43;;;;;;;;;;;24.40;48.00;;;;;;5067017;28;19920;-63
2022/07/20 08:57:10;;;;;;;;;;;24.40;48.10;;;;;;5067925;28;19933;-64
2022/07/20 08:59:37;;;;;;;;;;;24.50;48.30;;;;;;5102251;28;19924;-63
2022/07/20 09:02:04;;;;;;;;;;;24.50;48.20;;;;;;5079444;28;19939;-64
2022/07/20 09:04:30;;;;;;;;;;;24.50;48.30;;;;;;5081008;28;19920;-63
2022/07/20 09:06:58;;;;;;;;;;;24.50;48.20;;;;;;5069112;28;19928;-64
2022/07/20 09:09:25;;;;;;;;;;;24.50;48.20;;;;;;5081222;28;19979;-64
2022/07/20 09:11:52;;;;;;;;;;;24.50;48.30;;;;;;5080710;28;19921;-64
2022/07/20 09:14:34;;;;;;;;;;;24.50;48.20;;;;;;5100222;28;19928;-64
2022/07/20 09:17:01;;;;;;;;;;;24.50;48.30;;;;;;5064626;28;19928;-65
2022/07/20 09:19:27;;;;;;;;;;;24.50;48.30;;;;;;5082049;28;19924;-64
2022/07/20 09:21:54;;;;;;;;;;;24.50;48.30;;;;;;5067058;28;19920;-64
2022/07/20 09:24:22;;;;;;;;;;;24.50;48.30;;;;;;5066303;28;19921;-63
2022/07/20 09:26:49;;;;;;;;;;;24.50;48.30;;;;;;5081204;28;19920;-64
2022/07/20 09:29:16;;;;;;;;;;;24.60;48.60;;;;;;5065735;28;20280;-64
2022/07/20 09:31:45;;;;;;;;;;;24.60;48.60;;;;;;5100505;28;19920;-64
2022/07/20 09:34:13;;;;;;;;;;;24.60;48.60;;;;;;5061909;28;19924;-64
2022/07/20 09:36:40;;;;;;;;;;;24.60;48.60;;;;;;5070002;28;19920;-59
2022/07/20 09:39:07;;;;;;;;;;;24.60;48.60;;;;;;5099686;28;19921;-59
2022/07/20 09:41:36;;;;;;;;;;;24.60;48.60;;;;;;5103065;27;19951;-64
2022/07/20 09:44:04;;;;;;;;;;;24.60;48.70;;;;;;5066679;28;19981;-65
2022/07/20 09:46:32;;;;;;;;;;;24.60;48.70;;;;;;5080645;28;19921;-64
2022/07/20 09:49:00;;;;;;;;;;;24.60;48.80;;;;;;5081994;28;20388;-64
2022/07/20 09:51:27;;;;;;;;;;;24.60;48.80;;;;;;5083459;28;20376;-65
2022/07/20 09:53:55;;;;;;;;;;;24.70;48.90;;;;;;5063114;28;19920;-64
2022/07/20 09:56:22;;;;;;;;;;;24.70;48.80;;;;;;5084985;28;19924;-65
2022/07/20 09:58:50;;;;;;;;;;;24.70;48.80;;;;;;5068189;28;20284;-65
2022/07/20 10:01:18;;;;;;;;;;;24.70;48.80;;;;;;5069691;28;19928;-60
2022/07/20 10:03:45;;;;;;;;;;;24.70;48.80;;;;;;5074550;28;19967;-65
2022/07/20 10:06:12;;;;;;;;;;;24.70;48.90;;;;;;5099032;28;19925;-64
2022/07/20 10:08:39;;;;;;;;;;;24.70;48.90;;;;;;5065719;28;19920;-65
2022/07/20 10:11:06;;;;;;;;;;;24.70;48.90;;;;;;5066500;28;19920;-64
2022/07/20 10:13:33;;;;;;;;;;;24.70;48.90;;;;;;5067166;28;19943;-65
2022/07/20 10:16:02;;;;;;;;;;;24.70;48.90;;;;;;5063017;28;20273;-64
2022/07/20 10:18:29;;;;;;;;;;;24.70;48.90;;;;;;5080740;28;19939;-65
2022/07/20 10:20:56;;;;;;;;;;;24.80;49.00;;;;;;5063780;28;19924;-65
2022/07/20 10:23:27;;;;;;;;;;;24.80;49.00;;;;;;5082144;28;19924;-64
2022/07/20 10:25:54;;;;;;;;;;;24.80;49.00;;;;;;5066527;28;19948;-62
2022/07/20 10:28:34;;;;;;;;;;;24.80;49.10;;;;;;5064700;28;19935;-59
2022/07/20 10:31:04;;;;;;;;;;;24.80;49.10;;;;;;5081610;28;19925;-61
2022/07/20 10:33:31;;;;;;;;;;;24.80;49.10;;;;;;5065605;28;19944;-59
2022/07/20 10:38:39;;;;;;;;;;;24.80;49.00;;;;;;5066588;28;19928;-59
2022/07/20 10:41:36;;;;;;;;;;;24.80;49.00;;;;;;5134600;27;19923;-61
2022/07/20 10:44:21;;;;;;;;;;;24.80;49.00;;;;;;5082319;28;19932;-61
2022/07/20 10:46:48;;;;;;;;;;;24.80;49.00;;;;;;5098368;28;19981;-61
2022/07/20 10:49:15;;;;;;;;;;;24.80;49.00;;;;;;5084993;28;19958;-57
2022/07/20 10:51:41;;;;;;;;;;;24.80;49.00;;;;;;5089388;28;19997;-60
2022/07/20 10:54:27;;;;;;;;;;;24.90;49.10;;;;;;5085707;28;19939;-60
2022/07/20 10:56:55;;;;;;;;;;;24.90;49.60;;;;;;5084809;28;19920;-57
2022/07/20 10:59:22;;;;;;;;;;;24.90;49.10;;;;;;5085628;28;19942;-61
2022/07/20 11:01:49;;;;;;;;;;;24.90;49.00;;;;;;5084902;28;20039;-60
2022/07/20 11:04:16;;;;;;;;;;;24.90;49.00;;;;;;5085974;28;20325;-61
2022/07/20 11:06:43;;;;;;;;;;;24.90;49.00;;;;;;5116476;27;20322;-61
2022/07/20 11:09:21;;;;;;;;;;;24.90;49.00;;;;;;5112126;27;19947;-61
2022/07/20 11:11:48;;;;;;;;;;;24.90;49.00;;;;;;5114304;27;19921;-65
2022/07/20 11:14:17;;;;;;;;;;;24.90;49.00;;;;;;5087704;28;19920;-64
2022/07/20 11:16:44;;;;;;;;;;;24.90;49.00;;;;;;5087307;28;20368;-64
2022/07/20 11:19:11;;;;;;;;;;;24.90;49.00;;;;;;5083842;28;19949;-64
2022/07/20 11:21:39;;;;;;;;;;;24.90;49.00;;;;;;5087933;28;20058;-66
2022/07/20 11:24:07;;;;;;;;;;;24.90;49.00;;;;;;5084756;28;19932;-64
2022/07/20 11:26:34;;;;;;;;;;;24.90;49.10;;;;;;5084760;28;19955;-64
2022/07/20 11:29:00;;;;;;;;;;;24.90;49.10;;;;;;5084693;28;19986;-65
2022/07/20 11:31:29;;;;;;;;;;;24.90;49.10;;;;;;5086440;28;19932;-65
2022/07/20 11:33:56;;;;;;;;;;;24.90;49.10;;;;;;5090813;28;19947;-64
2022/07/20 11:36:26;;;;;;;;;;;24.90;49.10;;;;;;5085005;28;19931;-63
2022/07/20 11:38:53;;;;;;;;;;;24.90;49.10;;;;;;5083647;28;20099;-65
2022/07/20 11:41:20;;;;;;;;;;;24.90;49.10;;;;;;5085851;28;19924;-60
2022/07/20 11:43:47;;;;;;;;;;;24.90;49.20;;;;;;5087899;28;19931;-66
2022/07/20 11:46:14;;;;;;;;;;;24.90;49.20;;;;;;5085416;28;19928;-64
2022/07/20 11:48:42;;;;;;;;;;;24.90;49.20;;;;;;5083336;28;20337;-64
2022/07/20 11:51:09;;;;;;;;;;;24.90;49.20;;;;;;5080923;28;19970;-64
2022/07/20 11:53:37;;;;;;;;;;;24.90;49.20;;;;;;5076224;28;19928;-64
2022/07/20 11:56:04;;;;;;;;;;;24.90;49.20;;;;;;5072241;28;20350;-59
2022/07/20 11:58:32;;;;;;;;;;;24.90;49.20;;;;;;5069662;28;19925;-65
2022/07/20 12:00:59;;;;;;;;;;;24.90;49.20;;;;;;5070780;28;19921;-64
2022/07/20 12:03:26;;;;;;;;;;;24.90;49.20;;;;;;5073090;28;19924;-63
2022/07/20 12:05:54;;;;;;;;;;;24.90;49.20;;;;;;5071503;28;19921;-64
2022/07/20 12:08:24;;;;;;;;;;;24.90;49.20;;;;;;5070695;28;19970;-64
2022/07/20 12:10:51;;;;;;;;;;;24.90;49.20;;;;;;5072171;28;19929;-64
2022/07/20 12:13:18;;;;;;;;;;;24.90;49.30;;;;;;5070821;28;20361;-64
2022/07/20 12:15:52;;;;;;;;;;;24.90;49.20;;;;;;5071509;28;20321;-63
2022/07/20 12:18:32;;;;;;;;;;;24.90;49.30;;;;;;5068853;28;19966;-64
2022/07/20 12:21:00;;;;;;;;;;;24.90;49.30;;;;;;5082828;28;20284;-64
2022/07/20 12:23:27;;;;;;;;;;;24.90;49.30;;;;;;5070645;28;19933;-63
2022/07/20 12:25:53;;;;;;;;;;;24.90;49.30;;;;;;5071970;28;20424;-64
2022/07/20 12:28:27;;;;;;;;;;;25.00;49.40;;;;;;5069680;28;19920;-64
2022/07/20 12:30:54;;;;;;;;;;;24.90;49.30;;;;;;5069125;28;19920;-63
2022/07/20 12:33:21;;;;;;;;;;;24.90;49.30;;;;;;5070759;28;19920;-63
2022/07/20 12:35:48;;;;;;;;;;;24.90;49.30;;;;;;5071887;28;20012;-63
2022/07/20 12:38:17;;;;;;;;;;;25.00;49.40;;;;;;5073564;28;19948;-64
2022/07/20 12:40:44;;;;;;;;;;;24.90;49.30;;;;;;5069632;28;19948;-62
2022/07/20 12:43:27;;;;;;;;;;;25.00;49.40;;;;;;5069962;28;20429;-65
2022/07/20 12:45:54;;;;;;;;;;;25.00;49.40;;;;;;5070895;28;20029;-65
2022/07/20 12:48:21;;;;;;;;;;;25.00;49.30;;;;;;5072143;28;20015;-63
2022/07/20 12:50:48;;;;;;;;;;;25.00;49.40;;;;;;5071530;28;20004;-65
2022/07/20 12:53:14;;;;;;;;;;;25.00;49.40;;;;;;5071399;28;19930;-63
2022/07/20 12:55:43;;;;;;;;;;;25.00;49.40;;;;;;5068328;28;20338;-64
2022/07/20 12:58:10;;;;;;;;;;;25.00;49.40;;;;;;5069918;28;20269;-64
2022/07/20 13:00:36;;;;;;;;;;;25.00;49.30;;;;;;5071296;28;19932;-65
2022/07/20 13:03:03;;;;;;;;;;;25.00;49.40;;;;;;5071205;28;19920;-65
2022/07/20 13:05:30;;;;;;;;;;;25.00;49.40;;;;;;5064828;28;19931;-63
2022/07/20 13:07:57;;;;;;;;;;;25.00;49.40;;;;;;5074860;28;19931;-63
2022/07/20 13:10:24;;;;;;;;;;;25.00;49.40;;;;;;5073174;28;19920;-64
2022/07/20 13:12:52;;;;;;;;;;;25.00;49.50;;;;;;5071523;28;19921;-63
2022/07/20 13:15:18;;;;;;;;;;;25.00;49.40;;;;;;5066873;28;19928;-63
2022/07/20 13:17:45;;;;;;;;;;;25.00;49.40;;;;;;5070493;28;19932;-64
2022/07/20 13:20:12;;;;;;;;;;;25.00;49.50;;;;;;5106112;27;19993;-64
2022/07/20 13:22:39;;;;;;;;;;;25.00;49.50;;;;;;5070645;28;20342;-65
2022/07/20 13:25:06;;;;;;;;;;;25.00;49.40;;;;;;5072553;28;19920;-63
2022/07/20 13:27:33;;;;;;;;;;;25.00;49.40;;;;;;5071629;28;19921;-64
2022/07/20 13:30:01;;;;;;;;;;;25.00;49.40;;;;;;5069661;28;19979;-63
2022/07/20 13:32:27;;;;;;;;;;;25.00;49.40;;;;;;5070991;28;19974;-64
2022/07/20 13:34:54;;;;;;;;;;;25.00;49.50;;;;;;5073334;28;19927;-63
2022/07/20 13:37:21;;;;;;;;;;;25.00;49.50;;;;;;5068126;28;19972;-63
2022/07/20 13:39:48;;;;;;;;;;;25.00;49.50;;;;;;5084037;28;20251;-63
2022/07/20 13:42:14;;;;;;;;;;;25.00;49.50;;;;;;5070244;28;19920;-59
2022/07/20 13:44:41;;;;;;;;;;;25.00;49.50;;;;;;5075180;28;19989;-64
2022/07/20 13:47:09;;;;;;;;;;;25.00;49.50;;;;;;5070350;28;19924;-63
2022/07/20 13:49:36;;;;;;;;;;;25.10;49.50;;;;;;5059629;28;20011;-64
2022/07/20 13:52:03;;;;;;;;;;;25.00;49.50;;;;;;5069204;28;19920;-65
2022/07/20 13:54:29;;;;;;;;;;;25.00;49.50;;;;;;5068306;28;20269;-65
2022/07/20 13:56:56;;;;;;;;;;;25.00;49.50;;;;;;5070962;28;19971;-61
2022/07/20 13:59:23;;;;;;;;;;;25.00;49.50;;;;;;5070340;28;19925;-65
2022/07/20 14:01:50;;;;;;;;;;;25.10;49.50;;;;;;5069961;28;19920;-64
2022/07/20 14:04:18;;;;;;;;;;;25.10;49.60;;;;;;5071387;28;20407;-64
2022/07/20 14:06:45;;;;;;;;;;;25.10;49.60;;;;;;5109815;27;19920;-65
2022/07/20 14:09:12;;;;;;;;;;;25.00;49.50;;;;;;5073461;28;19955;-63
2022/07/20 14:11:39;;;;;;;;;;;25.10;49.50;;;;;;5068294;28;20300;-63
2022/07/20 14:14:06;;;;;;;;;;;25.10;49.50;;;;;;5067906;28;20387;-64
2022/07/20 14:16:33;;;;;;;;;;;25.10;49.60;;;;;;5069568;28;20423;-63
2022/07/20 14:19:00;;;;;;;;;;;25.10;49.60;;;;;;5068292;28;19997;-66
2022/07/20 14:21:28;;;;;;;;;;;25.10;49.60;;;;;;5068362;28;20354;-67
2022/07/20 14:23:56;;;;;;;;;;;25.10;49.60;;;;;;5070208;28;19982;-64